Time;durP1;ratioP1;P1;durP2;ratioP2;P2;SDS_P1;SDS_P2;PMS_P1;PMS_P2;Temp;Humidity;BMP_temperature;BMP_pressure;BME280_temperature;BME280_humidity;BME280_pressure;Samples;Min_cycle;Max_cycle;Signal;HPM_P1;HPM_P2
2023/12/13 00:02:15;;;;;;;19.13;14.00;;;;;;;;;;5074399;28;20193;-60
2023/12/13 00:04:43;;;;;;;19.27;13.50;;;;;;;;;;5074272;28;20274;-60
2023/12/13 00:07:10;;;;;;;21.33;14.05;;;;;;;;;;5074192;28;20296;-60
2023/12/13 00:09:38;;;;;;;17.30;13.27;;;;;;;;;;5074012;28;20196;-59
2023/12/13 00:12:05;;;;;;;21.08;13.50;;;;;;;;;;5073874;28;20549;-60
2023/12/13 00:14:32;;;;;;;18.20;13.32;;;;;;;;;;5074133;28;20275;-59
2023/12/13 00:16:59;;;;;;;22.27;14.95;;;;;;;;;;5074229;28;20228;-59
2023/12/13 00:19:26;;;;;;;18.08;13.43;;;;;;;;;;5073873;28;20303;-59
2023/12/13 00:21:54;;;;;;;17.88;13.52;;;;;;;;;;5073820;28;20280;-59
2023/12/13 00:24:21;;;;;;;18.73;14.75;;;;;;;;;;5073775;28;20296;-59
2023/12/13 00:26:49;;;;;;;18.92;13.68;;;;;;;;;;5073668;28;20246;-59
2023/12/13 00:29:16;;;;;;;19.20;13.60;;;;;;;;;;5073819;28;20193;-59
2023/12/13 00:31:43;;;;;;;19.42;14.27;;;;;;;;;;5073582;28;20186;-59
2023/12/13 00:34:10;;;;;;;19.33;14.70;;;;;;;;;;5073871;28;20185;-59
2023/12/13 00:36:37;;;;;;;23.40;13.57;;;;;;;;;;5073534;28;20615;-59
2023/12/13 00:39:06;;;;;;;23.23;15.25;;;;;;;;;;5073404;28;20209;-59
2023/12/13 00:41:33;;;;;;;19.42;13.35;;;;;;;;;;5073600;28;20192;-59
2023/12/13 00:44:00;;;;;;;18.83;13.60;;;;;;;;;;5073544;28;20297;-59
2023/12/13 00:46:27;;;;;;;19.95;13.40;;;;;;;;;;5073263;28;20284;-59
2023/12/13 00:48:54;;;;;;;19.48;14.07;;;;;;;;;;5073392;28;20189;-59
2023/12/13 00:51:22;;;;;;;20.40;13.18;;;;;;;;;;5073323;28;20189;-59
2023/12/13 00:53:50;;;;;;;18.52;13.15;;;;;;;;;;5073477;28;20189;-60
2023/12/13 00:56:18;;;;;;;21.30;13.57;;;;;;;;;;5073282;28;20592;-59
2023/12/13 00:58:47;;;;;;;24.20;15.38;;;;;;;;;;5073247;28;20275;-59
2023/12/13 01:01:14;;;;;;;21.08;14.85;;;;;;;;;;5073125;28;20189;-59
2023/12/13 01:03:41;;;;;;;18.30;13.95;;;;;;;;;;5073125;28;20280;-60
2023/12/13 01:06:09;;;;;;;17.33;13.20;;;;;;;;;;5073102;28;20223;-59
2023/12/13 01:08:36;;;;;;;19.30;13.68;;;;;;;;;;5073024;28;20690;-59
2023/12/13 01:11:03;;;;;;;23.25;15.90;;;;;;;;;;5073224;28;20228;-60
2023/12/13 01:13:31;;;;;;;21.55;14.38;;;;;;;;;;5073091;28;20284;-60
2023/12/13 01:15:58;;;;;;;20.13;14.88;;;;;;;;;;5073004;28;20185;-60
2023/12/13 01:18:25;;;;;;;20.60;15.13;;;;;;;;;;5073004;28;20272;-60
2023/12/13 01:20:52;;;;;;;21.92;14.50;;;;;;;;;;5072770;28;20307;-59
2023/12/13 01:23:18;;;;;;;20.20;14.90;;;;;;;;;;5073117;28;20192;-60
2023/12/13 01:25:45;;;;;;;18.20;12.40;;;;;;;;;;5073052;28;20276;-59
2023/12/13 01:28:12;;;;;;;19.23;14.32;;;;;;;;;;5072963;28;20443;-60
2023/12/13 01:30:41;;;;;;;18.05;13.25;;;;;;;;;;5072802;28;20720;-58
2023/12/13 01:33:07;;;;;;;19.35;13.80;;;;;;;;;;5072779;28;20185;-59
2023/12/13 01:35:34;;;;;;;19.10;14.48;;;;;;;;;;5072777;28;20645;-59
2023/12/13 01:38:01;;;;;;;18.85;14.85;;;;;;;;;;5072963;28;20196;-59
2023/12/13 01:40:28;;;;;;;21.95;15.05;;;;;;;;;;5072778;28;20224;-59
2023/12/13 01:42:55;;;;;;;23.50;15.55;;;;;;;;;;5072838;28;20189;-59
2023/12/13 01:45:22;;;;;;;17.52;13.35;;;;;;;;;;5072701;28;20238;-59
2023/12/13 01:47:50;;;;;;;19.55;13.35;;;;;;;;;;5072665;28;20191;-59
2023/12/13 01:50:17;;;;;;;18.58;14.32;;;;;;;;;;5072557;28;20627;-59
2023/12/13 01:52:45;;;;;;;19.58;13.38;;;;;;;;;;5073445;28;20196;-59
2023/12/13 01:55:13;;;;;;;15.43;12.32;;;;;;;;;;5076550;28;20300;-60
2023/12/13 01:57:40;;;;;;;19.13;15.02;;;;;;;;;;5076928;28;20196;-59
2023/12/13 02:00:08;;;;;;;21.75;12.55;;;;;;;;;;5076453;28;20772;-59
2023/12/13 02:02:35;;;;;;;18.10;13.23;;;;;;;;;;5076383;28;20239;-59
2023/12/13 02:05:04;;;;;;;14.98;12.43;;;;;;;;;;5076613;28;20235;-60
2023/12/13 02:07:31;;;;;;;20.52;12.85;;;;;;;;;;5076491;28;20285;-59
2023/12/13 02:09:58;;;;;;;17.13;12.77;;;;;;;;;;5076659;28;20189;-60
2023/12/13 02:12:25;;;;;;;16.23;12.48;;;;;;;;;;5076196;28;20201;-59
2023/12/13 02:14:52;;;;;;;14.32;11.05;;;;;;;;;;5076233;28;20633;-59
2023/12/13 02:17:19;;;;;;;16.23;12.32;;;;;;;;;;5076133;28;20204;-60
2023/12/13 02:19:46;;;;;;;17.58;12.35;;;;;;;;;;5076236;28;20213;-60
2023/12/13 02:22:14;;;;;;;20.60;11.88;;;;;;;;;;5076207;28;20314;-59
2023/12/13 02:24:42;;;;;;;19.57;12.63;;;;;;;;;;5076159;28;20280;-60
2023/12/13 02:27:09;;;;;;;15.38;12.15;;;;;;;;;;5075997;28;20439;-59
2023/12/13 02:29:36;;;;;;;18.67;13.50;;;;;;;;;;5075936;28;20193;-59
2023/12/13 02:32:03;;;;;;;17.48;11.95;;;;;;;;;;5076034;28;20189;-60
2023/12/13 02:34:30;;;;;;;19.67;12.30;;;;;;;;;;5076018;28;20552;-59
2023/12/13 02:36:57;;;;;;;15.73;11.52;;;;;;;;;;5075920;28;20185;-60
2023/12/13 02:39:26;;;;;;;18.52;13.68;;;;;;;;;;5075718;28;20186;-59
2023/12/13 02:41:53;;;;;;;14.48;11.40;;;;;;;;;;5075780;28;20192;-59
2023/12/13 02:44:20;;;;;;;15.23;11.98;;;;;;;;;;5075637;28;20236;-60
2023/12/13 02:46:47;;;;;;;21.63;13.48;;;;;;;;;;5075879;28;20243;-60
2023/12/13 02:49:14;;;;;;;18.80;12.15;;;;;;;;;;5075709;28;20189;-59
2023/12/13 02:51:41;;;;;;;14.07;10.90;;;;;;;;;;5075620;28;20192;-60
2023/12/13 02:54:08;;;;;;;16.83;12.30;;;;;;;;;;5075804;28;20197;-60
2023/12/13 02:56:36;;;;;;;15.85;11.73;;;;;;;;;;5075516;28;20221;-60
2023/12/13 02:59:03;;;;;;;17.83;11.45;;;;;;;;;;5075453;28;20189;-60
2023/12/13 03:01:30;;;;;;;19.73;12.13;;;;;;;;;;5075257;28;20684;-60
2023/12/13 03:03:57;;;;;;;18.13;12.45;;;;;;;;;;5074818;28;20220;-60
2023/12/13 03:06:24;;;;;;;20.85;12.90;;;;;;;;;;5074831;28;20186;-59
2023/12/13 03:08:51;;;;;;;21.30;13.90;;;;;;;;;;5075315;28;20292;-59
2023/12/13 03:11:20;;;;;;;16.90;12.55;;;;;;;;;;5075181;28;20780;-60
2023/12/13 03:13:48;;;;;;;20.60;13.63;;;;;;;;;;5075343;28;20189;-59
2023/12/13 03:16:15;;;;;;;16.27;11.97;;;;;;;;;;5075284;28;20276;-59
2023/12/13 03:18:42;;;;;;;19.80;13.60;;;;;;;;;;5075111;28;20535;-60
2023/12/13 03:21:09;;;;;;;16.15;13.00;;;;;;;;;;5075010;28;20919;-59
2023/12/13 03:23:36;;;;;;;24.23;13.27;;;;;;;;;;5074984;28;20189;-59
2023/12/13 03:26:03;;;;;;;16.45;12.30;;;;;;;;;;5074803;28;20281;-59
2023/12/13 03:28:30;;;;;;;18.35;13.85;;;;;;;;;;5075060;28;20276;-60
2023/12/13 03:30:58;;;;;;;17.38;13.45;;;;;;;;;;5074949;28;20185;-59
2023/12/13 03:33:25;;;;;;;22.33;13.17;;;;;;;;;;5074826;28;20189;-60
2023/12/13 03:35:52;;;;;;;16.23;13.13;;;;;;;;;;5074775;28;20444;-59
2023/12/13 03:38:19;;;;;;;14.10;12.37;;;;;;;;;;5074432;28;20895;-60
2023/12/13 03:40:46;;;;;;;19.10;12.80;;;;;;;;;;5074944;28;20490;-60
2023/12/13 03:43:13;;;;;;;16.40;12.33;;;;;;;;;;5074698;28;20186;-60
2023/12/13 03:45:40;;;;;;;18.17;12.55;;;;;;;;;;5074626;28;20530;-60
2023/12/13 03:48:08;;;;;;;15.60;11.93;;;;;;;;;;5074506;28;20543;-59
2023/12/13 03:50:34;;;;;;;19.70;13.13;;;;;;;;;;5074453;28;20531;-60
2023/12/13 03:53:01;;;;;;;16.40;12.70;;;;;;;;;;5074832;28;20276;-59
2023/12/13 03:55:28;;;;;;;15.00;12.50;;;;;;;;;;5074271;28;20471;-59
2023/12/13 03:57:55;;;;;;;20.67;12.75;;;;;;;;;;5074252;28;20448;-59
2023/12/13 04:00:22;;;;;;;15.60;12.67;;;;;;;;;;5074238;28;20216;-60
2023/12/13 04:02:49;;;;;;;19.60;12.80;;;;;;;;;;5074222;28;20448;-59
2023/12/13 04:05:17;;;;;;;16.98;13.02;;;;;;;;;;5074153;28;20544;-59
2023/12/13 04:07:44;;;;;;;19.02;12.90;;;;;;;;;;5073959;28;20191;-60
2023/12/13 04:10:11;;;;;;;15.95;12.80;;;;;;;;;;5074182;28;20227;-59
2023/12/13 04:12:38;;;;;;;18.52;14.00;;;;;;;;;;5074109;28;20763;-59
2023/12/13 04:15:05;;;;;;;21.58;13.23;;;;;;;;;;5074021;28;20193;-59
2023/12/13 04:17:32;;;;;;;19.48;13.38;;;;;;;;;;5073691;28;20272;-59
2023/12/13 04:19:59;;;;;;;18.50;14.20;;;;;;;;;;5073664;28;20612;-60
2023/12/13 04:22:27;;;;;;;18.90;14.07;;;;;;;;;;5073991;28;20216;-60
2023/12/13 04:24:54;;;;;;;24.13;13.90;;;;;;;;;;5073565;28;20281;-59
2023/12/13 04:27:21;;;;;;;19.70;13.60;;;;;;;;;;5073229;28;20704;-60
2023/12/13 04:29:48;;;;;;;26.63;14.18;;;;;;;;;;5073122;28;20451;-59
2023/12/13 04:32:15;;;;;;;22.98;14.20;;;;;;;;;;5073038;28;20285;-59
2023/12/13 04:34:42;;;;;;;17.83;13.05;;;;;;;;;;5072965;28;20567;-59
2023/12/13 04:37:10;;;;;;;23.67;13.53;;;;;;;;;;5073235;28;20276;-59
2023/12/13 04:39:38;;;;;;;20.70;13.65;;;;;;;;;;5073068;28;20471;-59
2023/12/13 04:42:05;;;;;;;22.53;12.70;;;;;;;;;;5073246;28;20217;-60
2023/12/13 04:44:32;;;;;;;18.90;12.82;;;;;;;;;;5073341;28;20946;-60
2023/12/13 04:46:59;;;;;;;17.23;13.30;;;;;;;;;;5073375;28;20587;-60
2023/12/13 04:49:26;;;;;;;23.40;14.23;;;;;;;;;;5073285;28;20216;-60
2023/12/13 04:51:53;;;;;;;16.53;13.20;;;;;;;;;;5073389;28;20193;-60
2023/12/13 04:54:20;;;;;;;17.83;12.80;;;;;;;;;;5073312;28;20538;-60
2023/12/13 04:56:48;;;;;;;21.10;13.80;;;;;;;;;;5073300;28;20668;-60
2023/12/13 04:59:15;;;;;;;20.97;14.43;;;;;;;;;;5073156;28;20536;-60
2023/12/13 05:01:42;;;;;;;21.17;12.87;;;;;;;;;;5073013;28;20572;-60
2023/12/13 05:04:09;;;;;;;22.60;13.43;;;;;;;;;;5073278;28;20447;-60
2023/12/13 05:06:36;;;;;;;20.00;13.77;;;;;;;;;;5073453;28;20531;-60
2023/12/13 05:09:03;;;;;;;17.70;12.80;;;;;;;;;;5073152;28;20554;-60
2023/12/13 05:11:30;;;;;;;18.63;13.60;;;;;;;;;;5073041;28;20444;-60
2023/12/13 05:13:58;;;;;;;19.42;13.38;;;;;;;;;;5072995;28;20546;-60
2023/12/13 05:16:25;;;;;;;21.02;14.80;;;;;;;;;;5072842;28;20196;-59
2023/12/13 05:18:52;;;;;;;21.10;15.30;;;;;;;;;;5073117;28;20191;-59
2023/12/13 05:21:19;;;;;;;19.93;14.90;;;;;;;;;;5072972;28;20858;-59
2023/12/13 05:23:46;;;;;;;21.60;14.90;;;;;;;;;;5072932;28;20534;-60
2023/12/13 05:26:13;;;;;;;23.07;15.30;;;;;;;;;;5072904;28;20444;-60
2023/12/13 05:28:40;;;;;;;25.07;15.10;;;;;;;;;;5072018;28;20546;-61
2023/12/13 05:31:18;;;;;;;20.67;14.60;;;;;;;;;;5072643;28;20447;-60
2023/12/13 05:33:45;;;;;;;21.77;15.50;;;;;;;;;;5072884;28;20461;-60
2023/12/13 05:36:12;;;;;;;21.80;14.90;;;;;;;;;;5072839;28;20874;-60
2023/12/13 05:38:39;;;;;;;19.47;14.57;;;;;;;;;;5072722;28;21029;-60
2023/12/13 05:41:06;;;;;;;20.70;15.00;;;;;;;;;;5072808;28;20565;-60
2023/12/13 05:43:34;;;;;;;19.87;13.90;;;;;;;;;;5072859;28;20526;-60
2023/12/13 05:46:01;;;;;;;22.57;16.70;;;;;;;;;;5072763;28;20486;-60
2023/12/13 05:48:29;;;;;;;21.80;14.90;;;;;;;;;;5072754;28;20447;-60
2023/12/13 05:50:56;;;;;;;26.70;16.00;;;;;;;;;;5072609;28;20483;-60
2023/12/13 05:53:23;;;;;;;18.30;14.13;;;;;;;;;;5072626;28;20534;-59
2023/12/13 05:55:50;;;;;;;21.47;14.13;;;;;;;;;;5072405;28;20474;-60
2023/12/13 05:58:17;;;;;;;18.00;14.93;;;;;;;;;;5072447;28;20807;-60
2023/12/13 06:00:44;;;;;;;19.43;14.40;;;;;;;;;;5072398;28;20473;-59
2023/12/13 06:03:11;;;;;;;21.57;14.70;;;;;;;;;;5072527;28;20542;-60
2023/12/13 06:05:39;;;;;;;19.40;14.83;;;;;;;;;;5072478;28;20527;-60
2023/12/13 06:08:06;;;;;;;18.50;14.10;;;;;;;;;;5072429;28;20455;-59
2023/12/13 06:10:33;;;;;;;17.43;13.10;;;;;;;;;;5072262;28;20448;-60
2023/12/13 06:13:00;;;;;;;20.47;14.60;;;;;;;;;;5072525;28;20443;-59
2023/12/13 06:15:27;;;;;;;19.30;14.77;;;;;;;;;;5072453;28;20454;-59
2023/12/13 06:17:54;;;;;;;20.63;13.40;;;;;;;;;;5072386;28;20479;-60
2023/12/13 06:20:21;;;;;;;22.53;15.10;;;;;;;;;;5072161;28;20939;-59
2023/12/13 06:22:49;;;;;;;19.10;14.43;;;;;;;;;;5072311;28;20448;-60
2023/12/13 06:25:16;;;;;;;22.70;15.00;;;;;;;;;;5072233;28;20450;-59
2023/12/13 06:27:43;;;;;;;19.33;13.13;;;;;;;;;;5072423;28;20479;-59
2023/12/13 06:30:11;;;;;;;17.47;13.60;;;;;;;;;;5072244;28;20538;-61
2023/12/13 06:32:38;;;;;;;20.53;14.23;;;;;;;;;;5072236;28;20853;-60
2023/12/13 06:35:05;;;;;;;15.27;12.80;;;;;;;;;;5072229;28;20445;-59
2023/12/13 06:37:32;;;;;;;18.93;13.97;;;;;;;;;;5071965;28;20528;-59
2023/12/13 06:40:00;;;;;;;16.70;13.40;;;;;;;;;;5074710;28;20505;-59
2023/12/13 06:42:28;;;;;;;19.40;13.83;;;;;;;;;;5075997;28;20478;-59
2023/12/13 06:44:55;;;;;;;16.97;12.53;;;;;;;;;;5075762;28;20760;-60
2023/12/13 06:47:22;;;;;;;16.93;12.20;;;;;;;;;;5075645;28;20890;-60
2023/12/13 06:49:49;;;;;;;18.33;13.15;;;;;;;;;;5075394;28;20530;-59
2023/12/13 06:52:16;;;;;;;20.53;14.40;;;;;;;;;;5075386;28;20199;-59
2023/12/13 06:54:43;;;;;;;17.37;13.93;;;;;;;;;;5075386;28;20558;-59
2023/12/13 06:57:12;;;;;;;17.90;12.97;;;;;;;;;;5075609;28;21281;-59
2023/12/13 06:59:39;;;;;;;19.63;15.23;;;;;;;;;;5075425;28;20447;-60
2023/12/13 07:02:06;;;;;;;19.77;14.60;;;;;;;;;;5075142;28;20489;-59
2023/12/13 07:04:35;;;;;;;17.58;14.23;;;;;;;;;;5075256;28;20450;-59
2023/12/13 07:07:02;;;;;;;20.27;15.67;;;;;;;;;;5075418;28;20276;-60
2023/12/13 07:09:30;;;;;;;19.13;15.70;;;;;;;;;;5075340;28;20534;-60
2023/12/13 07:11:57;;;;;;;23.20;14.90;;;;;;;;;;5075256;28;20189;-60
2023/12/13 07:14:25;;;;;;;21.13;15.63;;;;;;;;;;5075307;28;20447;-60
2023/12/13 07:16:52;;;;;;;21.45;14.68;;;;;;;;;;5075055;28;20446;-60
2023/12/13 07:19:19;;;;;;;19.73;14.05;;;;;;;;;;5074952;28;20659;-60
2023/12/13 07:21:46;;;;;;;21.63;15.57;;;;;;;;;;5075096;28;20221;-60
2023/12/13 07:24:13;;;;;;;21.77;15.60;;;;;;;;;;5075242;28;20443;-60
2023/12/13 07:26:39;;;;;;;23.00;14.90;;;;;;;;;;5074908;28;20864;-59
2023/12/13 07:29:06;;;;;;;19.33;14.70;;;;;;;;;;5074784;28;20543;-60
2023/12/13 07:31:40;;;;;;;22.77;16.03;;;;;;;;;;5074836;28;20453;-60
2023/12/13 07:34:07;;;;;;;18.63;14.43;;;;;;;;;;5074977;28;20451;-60
2023/12/13 07:36:34;;;;;;;16.13;14.17;;;;;;;;;;5074825;28;20443;-60
2023/12/13 07:39:02;;;;;;;19.67;15.33;;;;;;;;;;5074557;28;20938;-60
2023/12/13 07:41:29;;;;;;;22.10;16.30;;;;;;;;;;5074491;28;20471;-60
2023/12/13 07:43:57;;;;;;;21.17;15.33;;;;;;;;;;5074453;28;20445;-59
2023/12/13 07:46:25;;;;;;;20.17;15.97;;;;;;;;;;5074428;28;20447;-60
2023/12/13 07:48:54;;;;;;;22.53;16.50;;;;;;;;;;5074765;28;20535;-60
2023/12/13 07:51:21;;;;;;;21.87;15.83;;;;;;;;;;5073893;28;20964;-60
2023/12/13 07:53:48;;;;;;;21.60;16.97;;;;;;;;;;5074320;28;20531;-59
2023/12/13 07:56:14;;;;;;;21.40;16.52;;;;;;;;;;5074281;28;20470;-60
2023/12/13 07:58:41;;;;;;;21.33;17.25;;;;;;;;;;5074261;28;20239;-60
2023/12/13 08:01:08;;;;;;;22.58;16.92;;;;;;;;;;5073898;28;20617;-60
2023/12/13 08:03:35;;;;;;;24.73;17.20;;;;;;;;;;5074295;28;20284;-60
2023/12/13 08:06:10;;;;;;;21.20;17.30;;;;;;;;;;5074064;28;20189;-60
2023/12/13 08:08:39;;;;;;;23.20;16.00;;;;;;;;;;5074029;28;20529;-60
2023/12/13 08:11:07;;;;;;;24.80;16.87;;;;;;;;;;5073866;28;20200;-60
2023/12/13 08:13:34;;;;;;;22.15;17.92;;;;;;;;;;5073680;28;20935;-60
2023/12/13 08:16:01;;;;;;;25.13;19.17;;;;;;;;;;5073944;28;20185;-60
2023/12/13 08:18:28;;;;;;;23.87;18.80;;;;;;;;;;5073919;28;20450;-60
2023/12/13 08:20:55;;;;;;;24.47;18.30;;;;;;;;;;5073984;28;20479;-60
2023/12/13 08:23:23;;;;;;;26.90;18.40;;;;;;;;;;5073857;28;20494;-59
2023/12/13 08:25:50;;;;;;;31.03;18.60;;;;;;;;;;5073603;28;20543;-60
2023/12/13 08:28:17;;;;;;;24.27;17.77;;;;;;;;;;5073897;28;20479;-59
2023/12/13 08:30:44;;;;;;;27.33;18.23;;;;;;;;;;5073658;28;20538;-59
2023/12/13 08:33:11;;;;;;;23.70;18.10;;;;;;;;;;5073658;28;20479;-61
2023/12/13 08:35:38;;;;;;;21.60;17.57;;;;;;;;;;5073539;28;20450;-60
2023/12/13 08:38:05;;;;;;;22.83;18.45;;;;;;;;;;5073459;28;20542;-60
2023/12/13 08:40:33;;;;;;;23.93;18.17;;;;;;;;;;5073536;28;20280;-60
2023/12/13 08:43:00;;;;;;;21.13;16.20;;;;;;;;;;5073381;28;20479;-60
2023/12/13 08:45:27;;;;;;;22.73;16.73;;;;;;;;;;5073485;28;20825;-61
2023/12/13 08:47:54;;;;;;;24.37;16.93;;;;;;;;;;5073472;28;20874;-59
2023/12/13 08:50:21;;;;;;;21.70;17.07;;;;;;;;;;5073235;28;21002;-59
2023/12/13 08:52:48;;;;;;;26.70;19.03;;;;;;;;;;5073021;28;20475;-60
2023/12/13 08:55:15;;;;;;;24.80;20.40;;;;;;;;;;5073163;28;20467;-60
2023/12/13 08:57:43;;;;;;;23.90;18.53;;;;;;;;;;5073363;28;20969;-60
2023/12/13 09:00:11;;;;;;;25.97;18.67;;;;;;;;;;5073118;28;20997;-59
2023/12/13 09:02:37;;;;;;;24.80;18.87;;;;;;;;;;5072117;28;20541;-59
2023/12/13 09:05:05;;;;;;;27.07;18.43;;;;;;;;;;5073126;28;20535;-61
2023/12/13 09:07:32;;;;;;;27.60;19.40;;;;;;;;;;5072923;28;20890;-62
2023/12/13 09:09:59;;;;;;;26.50;17.90;;;;;;;;;;5073195;28;20444;-60
2023/12/13 09:12:27;;;;;;;25.27;18.23;;;;;;;;;;5073078;28;20542;-61
2023/12/13 09:14:55;;;;;;;28.37;20.13;;;;;;;;;;5073104;28;20931;-61
2023/12/13 09:17:22;;;;;;;22.10;17.70;;;;;;;;;;5072869;28;20530;-60
2023/12/13 09:19:50;;;;;;;27.13;19.52;;;;;;;;;;5072848;28;20446;-60
2023/12/13 09:22:17;;;;;;;26.87;19.00;;;;;;;;;;5072539;28;20205;-59
2023/12/13 09:24:44;;;;;;;26.63;19.90;;;;;;;;;;5072998;28;20447;-61
2023/12/13 09:27:11;;;;;;;29.97;20.97;;;;;;;;;;5072870;28;20196;-60
2023/12/13 09:29:38;;;;;;;22.20;18.30;;;;;;;;;;5072923;28;20530;-60
2023/12/13 09:32:07;;;;;;;27.73;20.10;;;;;;;;;;5072757;28;20546;-60
2023/12/13 09:34:33;;;;;;;25.10;19.57;;;;;;;;;;5072575;28;20538;-62
2023/12/13 09:37:00;;;;;;;28.00;19.77;;;;;;;;;;5072722;28;20531;-61
2023/12/13 09:39:27;;;;;;;30.77;23.60;;;;;;;;;;5071815;28;20537;-59
2023/12/13 09:42:00;;;;;;;32.17;20.20;;;;;;;;;;5072722;28;20219;-57
2023/12/13 09:44:28;;;;;;;27.97;19.83;;;;;;;;;;5072296;28;20559;-59
2023/12/13 09:46:57;;;;;;;28.30;20.60;;;;;;;;;;5072605;28;20807;-59
2023/12/13 09:49:26;;;;;;;27.07;18.70;;;;;;;;;;5072616;28;21054;-59
2023/12/13 09:51:54;;;;;;;29.08;20.50;;;;;;;;;;5072590;28;20440;-59
2023/12/13 09:54:22;;;;;;;27.00;19.23;;;;;;;;;;5072486;28;20299;-59
2023/12/13 09:56:49;;;;;;;30.00;20.33;;;;;;;;;;5072421;28;20447;-59
2023/12/13 09:59:16;;;;;;;26.37;19.90;;;;;;;;;;5072623;28;20627;-59
2023/12/13 10:01:43;;;;;;;28.90;20.03;;;;;;;;;;5072390;28;20854;-59
2023/12/13 10:04:10;;;;;;;32.57;21.57;;;;;;;;;;5072631;28;20535;-59
2023/12/13 10:06:39;;;;;;;26.73;20.30;;;;;;;;;;5072805;28;20617;-59
2023/12/13 10:09:08;;;;;;;32.40;22.40;;;;;;;;;;5072492;28;20447;-59
2023/12/13 10:11:35;;;;;;;30.13;20.40;;;;;;;;;;5072474;28;20497;-59
2023/12/13 10:14:02;;;;;;;30.83;21.00;;;;;;;;;;5073486;28;20588;-59
2023/12/13 10:16:29;;;;;;;27.57;20.03;;;;;;;;;;5076121;28;20455;-59
2023/12/13 10:18:56;;;;;;;28.77;21.80;;;;;;;;;;5076279;28;20481;-59
2023/12/13 10:21:23;;;;;;;27.77;19.83;;;;;;;;;;5076131;28;20883;-59
2023/12/13 10:23:52;;;;;;;28.70;21.20;;;;;;;;;;5076021;28;20483;-59
2023/12/13 10:26:19;;;;;;;24.03;19.03;;;;;;;;;;5075931;28;20542;-58
2023/12/13 10:28:46;;;;;;;25.67;19.20;;;;;;;;;;5075874;28;20534;-59
2023/12/13 10:31:13;;;;;;;32.73;22.70;;;;;;;;;;5076069;28;20780;-59
2023/12/13 10:33:40;;;;;;;25.57;18.93;;;;;;;;;;5076223;28;20543;-59
2023/12/13 10:36:07;;;;;;;29.10;20.13;;;;;;;;;;5075678;28;20538;-59
2023/12/13 10:38:34;;;;;;;32.17;20.77;;;;;;;;;;5075859;28;20522;-62
2023/12/13 10:41:03;;;;;;;30.50;21.47;;;;;;;;;;5075632;28;20546;-63
2023/12/13 10:43:31;;;;;;;27.53;19.70;;;;;;;;;;5075476;28;20568;-60
2023/12/13 10:46:01;;;;;;;31.83;22.07;;;;;;;;;;5075875;28;20445;-60
2023/12/13 10:48:31;;;;;;;30.73;20.90;;;;;;;;;;5075725;28;20992;-59
2023/12/13 10:50:59;;;;;;;35.97;22.87;;;;;;;;;;5075679;28;20955;-60
2023/12/13 10:53:26;;;;;;;32.90;21.20;;;;;;;;;;5075460;28;20452;-58
2023/12/13 10:55:54;;;;;;;30.23;22.50;;;;;;;;;;5075296;28;20887;-61
2023/12/13 10:58:22;;;;;;;31.97;21.13;;;;;;;;;;5075496;28;20450;-60
2023/12/13 11:00:50;;;;;;;30.23;21.10;;;;;;;;;;5075352;28;20447;-60
2023/12/13 11:03:20;;;;;;;29.43;20.00;;;;;;;;;;5075271;28;20505;-60
2023/12/13 11:05:47;;;;;;;29.67;21.50;;;;;;;;;;5075220;28;20938;-57
2023/12/13 11:08:15;;;;;;;35.20;21.43;;;;;;;;;;5075197;28;20808;-60
2023/12/13 11:10:43;;;;;;;34.40;21.63;;;;;;;;;;5075073;28;20448;-61
2023/12/13 11:13:10;;;;;;;35.27;22.10;;;;;;;;;;5075346;28;20850;-60
2023/12/13 11:15:44;;;;;;;27.20;20.00;;;;;;;;;;5074954;28;20630;-61
2023/12/13 11:18:12;;;;;;;31.70;20.97;;;;;;;;;;5075186;28;20451;-60
2023/12/13 11:20:46;;;;;;;30.20;21.10;;;;;;;;;;5075007;28;20475;-60
2023/12/13 11:23:15;;;;;;;26.57;19.90;;;;;;;;;;5074832;28;20513;-60
2023/12/13 11:25:46;;;;;;;29.07;20.97;;;;;;;;;;5073947;28;20455;-61
2023/12/13 11:28:21;;;;;;;27.53;20.73;;;;;;;;;;5074977;28;20474;-61
2023/12/13 11:30:50;;;;;;;29.77;19.67;;;;;;;;;;5074942;28;20542;-64
2023/12/13 11:33:20;;;;;;;25.20;20.20;;;;;;;;;;5074760;28;20945;-64
2023/12/13 11:35:48;;;;;;;25.40;19.20;;;;;;;;;;5074731;28;21030;-63
2023/12/13 11:38:15;;;;;;;26.60;17.57;;;;;;;;;;5074877;28;20542;-64
2023/12/13 11:40:42;;;;;;;22.17;17.07;;;;;;;;;;5074600;28;20535;-60
2023/12/13 11:43:09;;;;;;;24.03;18.53;;;;;;;;;;5074345;28;20486;-57
2023/12/13 11:45:36;;;;;;;23.33;18.17;;;;;;;;;;5074478;28;20526;-59
2023/12/13 11:48:04;;;;;;;25.53;18.67;;;;;;;;;;5074278;28;20538;-59
2023/12/13 11:50:31;;;;;;;24.27;16.97;;;;;;;;;;5074692;28;20543;-60
2023/12/13 11:52:58;;;;;;;23.77;17.97;;;;;;;;;;5074258;28;20439;-60
2023/12/13 11:55:26;;;;;;;22.37;16.93;;;;;;;;;;5074051;28;20550;-60
2023/12/13 11:57:53;;;;;;;25.97;18.23;;;;;;;;;;5074800;28;20444;-60
2023/12/13 12:00:21;;;;;;;24.50;17.47;;;;;;;;;;5074242;28;20443;-61
2023/12/13 12:02:48;;;;;;;20.30;16.40;;;;;;;;;;5074330;28;20586;-59
2023/12/13 12:05:16;;;;;;;25.23;18.30;;;;;;;;;;5074330;28;20452;-61
2023/12/13 12:07:43;;;;;;;24.07;18.13;;;;;;;;;;5074109;28;20867;-61
2023/12/13 12:10:10;;;;;;;23.73;18.10;;;;;;;;;;5073814;28;20534;-60
2023/12/13 12:12:37;;;;;;;28.47;18.70;;;;;;;;;;5073902;28;20935;-61
2023/12/13 12:15:07;;;;;;;24.40;18.13;;;;;;;;;;5073767;28;20475;-60
2023/12/13 12:17:34;;;;;;;24.90;18.23;;;;;;;;;;5074274;28;20526;-58
2023/12/13 12:20:03;;;;;;;26.70;17.60;;;;;;;;;;5073834;28;20530;-59
2023/12/13 12:22:33;;;;;;;22.67;18.33;;;;;;;;;;5073605;28;20454;-59
2023/12/13 12:25:00;;;;;;;24.37;17.00;;;;;;;;;;5073795;28;20772;-60
2023/12/13 12:27:27;;;;;;;27.47;17.23;;;;;;;;;;5074183;28;20467;-60
2023/12/13 12:29:54;;;;;;;25.50;17.47;;;;;;;;;;5073813;28;20436;-60
2023/12/13 12:32:21;;;;;;;26.43;17.80;;;;;;;;;;5073622;28;20444;-61
2023/12/13 12:34:49;;;;;;;23.23;16.80;;;;;;;;;;5073668;28;20876;-62
2023/12/13 12:37:16;;;;;;;26.23;17.67;;;;;;;;;;5073595;28;20486;-61
2023/12/13 12:39:45;;;;;;;22.70;16.43;;;;;;;;;;5073603;28;20708;-61
2023/12/13 12:42:12;;;;;;;30.43;19.50;;;;;;;;;;5073268;28;20542;-61
2023/12/13 12:44:39;;;;;;;25.00;18.30;;;;;;;;;;5073541;28;20506;-62
2023/12/13 12:47:06;;;;;;;25.10;18.10;;;;;;;;;;5073292;28;20906;-61
2023/12/13 12:49:33;;;;;;;28.93;19.00;;;;;;;;;;5073237;28;20950;-61
2023/12/13 12:52:00;;;;;;;28.50;18.27;;;;;;;;;;5073479;28;20539;-61
2023/12/13 12:54:27;;;;;;;26.50;17.30;;;;;;;;;;5073041;28;20444;-63
2023/12/13 12:56:55;;;;;;;28.23;20.20;;;;;;;;;;5073080;28;20475;-60
2023/12/13 12:59:22;;;;;;;28.17;19.87;;;;;;;;;;5073237;28;21029;-61
2023/12/13 13:01:49;;;;;;;29.30;18.10;;;;;;;;;;5073393;28;20444;-61
2023/12/13 13:04:19;;;;;;;27.00;19.23;;;;;;;;;;5073039;28;21002;-59
2023/12/13 13:06:46;;;;;;;24.43;17.47;;;;;;;;;;5072941;28;20444;-59
2023/12/13 13:09:13;;;;;;;26.03;18.13;;;;;;;;;;5072952;28;20826;-57
2023/12/13 13:11:41;;;;;;;29.80;18.73;;;;;;;;;;5073082;28;20481;-59
2023/12/13 13:14:09;;;;;;;23.83;18.27;;;;;;;;;;5073085;28;20450;-60
2023/12/13 13:16:37;;;;;;;28.50;19.57;;;;;;;;;;5072816;28;20986;-60
2023/12/13 13:19:05;;;;;;;29.53;18.87;;;;;;;;;;5072862;28;20440;-59
2023/12/13 13:21:32;;;;;;;27.27;19.40;;;;;;;;;;5072806;28;20508;-60
2023/12/13 13:23:59;;;;;;;26.07;17.93;;;;;;;;;;5072682;28;20482;-60
2023/12/13 13:26:26;;;;;;;32.83;20.47;;;;;;;;;;5073087;28;20482;-60
2023/12/13 13:28:53;;;;;;;25.93;17.57;;;;;;;;;;5072843;28;20454;-59
2023/12/13 13:31:22;;;;;;;29.60;19.87;;;;;;;;;;5072798;28;20455;-59
2023/12/13 13:33:49;;;;;;;27.27;17.70;;;;;;;;;;5072718;28;20554;-59
2023/12/13 13:36:17;;;;;;;27.83;18.10;;;;;;;;;;5072570;28;20534;-58
2023/12/13 13:38:44;;;;;;;25.33;18.73;;;;;;;;;;5072571;28;20458;-59
2023/12/13 13:41:11;;;;;;;28.47;19.47;;;;;;;;;;5072890;28;20494;-61
2023/12/13 13:43:38;;;;;;;30.53;19.60;;;;;;;;;;5072584;28;20479;-59
2023/12/13 13:46:04;;;;;;;26.80;18.17;;;;;;;;;;5072562;28;20458;-62
2023/12/13 13:48:32;;;;;;;29.17;19.33;;;;;;;;;;5072749;28;20624;-61
2023/12/13 13:51:00;;;;;;;27.40;19.10;;;;;;;;;;5076676;28;20823;-61
2023/12/13 13:53:27;;;;;;;31.63;20.43;;;;;;;;;;5076456;28;21008;-61
2023/12/13 13:55:54;;;;;;;30.83;21.00;;;;;;;;;;5076473;28;20566;-61
2023/12/13 13:58:21;;;;;;;28.17;18.47;;;;;;;;;;5076430;28;20454;-58
2023/12/13 14:00:47;;;;;;;28.73;19.47;;;;;;;;;;5076444;28;20482;-61
2023/12/13 14:03:15;;;;;;;29.80;19.47;;;;;;;;;;5076266;28;20475;-59
2023/12/13 14:05:43;;;;;;;30.53;20.20;;;;;;;;;;5076321;28;20475;-59
2023/12/13 14:08:13;;;;;;;29.00;19.63;;;;;;;;;;5076583;28;20528;-59
2023/12/13 14:10:40;;;;;;;30.57;19.50;;;;;;;;;;5076406;28;20500;-59
2023/12/13 14:13:08;;;;;;;33.67;20.37;;;;;;;;;;5075481;28;20812;-59
2023/12/13 14:15:35;;;;;;;32.17;19.50;;;;;;;;;;5074181;28;20446;-59
2023/12/13 14:18:02;;;;;;;28.17;19.73;;;;;;;;;;5074203;28;20529;-59